createdAt,value
2022-09-21T00:01:07.591Z,64.87
2022-09-21T00:03:35.336Z,65.06
2022-09-21T00:06:04.759Z,64.47
2022-09-21T00:08:32.648Z,64.59
2022-09-21T00:11:00.320Z,64.33
2022-09-21T00:13:28.722Z,64.28
2022-09-21T00:15:56.746Z,64.40
2022-09-21T00:18:26.666Z,64.28
2022-09-21T00:20:54.433Z,63.82
2022-09-21T00:23:23.213Z,64.29
2022-09-21T00:25:51.228Z,64.28
2022-09-21T00:28:18.828Z,65.33
2022-09-21T00:30:51.557Z,66.02
2022-09-21T00:33:19.213Z,66.16
2022-09-21T00:35:48.168Z,66.13
2022-09-21T00:38:15.743Z,66.14
2022-09-21T00:40:43.759Z,65.74
2022-09-21T00:43:15.643Z,65.78
2022-09-21T00:45:44.175Z,65.70
2022-09-21T00:48:11.854Z,65.99
2022-09-21T00:50:45.349Z,66.20
2022-09-21T00:53:16.032Z,66.00
2022-09-21T00:55:49.219Z,66.20
2022-09-21T00:58:24.191Z,65.99
2022-09-21T01:00:52.383Z,65.92
2022-09-21T01:03:20.030Z,65.63
2022-09-21T01:05:47.590Z,65.54
2022-09-21T01:08:18.478Z,65.19
2022-09-21T01:11:01.341Z,65.92
2022-09-21T01:13:44.203Z,66.20
2022-09-21T01:16:16.745Z,66.48
2022-09-21T01:18:51.820Z,66.86
2022-09-21T01:21:24.724Z,66.51
2022-09-21T01:24:19.449Z,66.46
2022-09-21T01:27:19.249Z,66.65
2022-09-21T01:29:53.194Z,67.05
2022-09-21T01:32:26.051Z,67.32
2022-09-21T01:34:56.454Z,67.44
2022-09-21T01:37:29.309Z,67.52
2022-09-21T01:40:02.940Z,67.78
2022-09-21T01:42:33.715Z,67.43
2022-09-21T01:45:08.060Z,67.36
2022-09-21T01:47:39.892Z,67.29
2022-09-21T01:50:13.323Z,67.33
2022-09-21T01:52:45.969Z,67.53
2022-09-21T01:55:17.654Z,67.77
2022-09-21T01:57:53.160Z,67.97
2022-09-21T02:00:23.316Z,68.29
2022-09-21T02:02:59.098Z,68.49
2022-09-21T02:05:30.016Z,68.68
2022-09-21T02:07:59.485Z,69.04
2022-09-21T02:10:32.383Z,69.04
2022-09-21T02:13:05.691Z,69.20
2022-09-21T02:15:58.768Z,69.15
2022-09-21T02:18:46.760Z,69.24
2022-09-21T02:21:21.814Z,69.21
2022-09-21T02:23:58.806Z,68.95
2022-09-21T02:26:33.050Z,68.44
2022-09-21T02:29:11.809Z,68.95
2022-09-21T02:31:46.694Z,68.67
2022-09-21T02:34:20.152Z,68.27
2022-09-21T02:36:53.675Z,67.98
2022-09-21T02:39:31.796Z,68.02
2022-09-21T02:42:06.669Z,68.13
2022-09-21T02:44:40.427Z,68.21
2022-09-21T02:47:15.059Z,67.91
2022-09-21T02:49:47.623Z,68.20
2022-09-21T02:52:18.200Z,68.47
2022-09-21T02:54:51.302Z,68.36
2022-09-21T02:57:21.558Z,68.41
2022-09-21T02:59:50.035Z,68.51
2022-09-21T03:02:19.074Z,68.31
2022-09-21T03:04:49.941Z,68.84
2022-09-21T03:07:17.954Z,69.10
2022-09-21T03:09:46.493Z,69.08
2022-09-21T03:12:14.215Z,69.36
2022-09-21T03:14:41.862Z,69.30
2022-09-21T03:17:09.773Z,69.81
2022-09-21T03:19:38.733Z,70.02
2022-09-21T03:22:06.331Z,69.95
2022-09-21T03:24:48.895Z,70.13
2022-09-21T03:27:18.490Z,70.44
2022-09-21T03:29:46.854Z,70.32
2022-09-21T03:32:15.284Z,70.43
2022-09-21T03:34:44.218Z,70.11
2022-09-21T03:37:12.368Z,69.98
2022-09-21T03:39:40.041Z,70.15
2022-09-21T03:42:09.899Z,70.28
2022-09-21T03:44:38.293Z,70.43
2022-09-21T03:47:06.676Z,70.47
2022-09-21T03:49:34.945Z,70.68
2022-09-21T03:52:04.092Z,70.74
2022-09-21T03:54:33.373Z,70.96
2022-09-21T03:57:01.479Z,70.70
2022-09-21T03:59:29.058Z,70.70
2022-09-21T04:01:56.648Z,70.68
2022-09-21T04:04:24.308Z,70.69
2022-09-21T04:06:51.994Z,70.73
2022-09-21T04:09:21.005Z,70.71
2022-09-21T04:11:48.783Z,70.84
2022-09-21T04:14:17.467Z,70.82
2022-09-21T04:16:45.105Z,70.66
2022-09-21T04:19:12.768Z,71.02
2022-09-21T04:21:40.392Z,71.15
2022-09-21T04:24:08.142Z,70.94
2022-09-21T04:26:37.849Z,70.74
2022-09-21T04:29:06.535Z,70.80
2022-09-21T04:31:34.575Z,70.64
2022-09-21T04:34:20.236Z,69.83
2022-09-21T04:36:48.096Z,69.65
2022-09-21T04:39:15.662Z,69.32
2022-09-21T04:41:45.439Z,69.28
2022-09-21T04:44:13.104Z,69.29
2022-09-21T04:46:40.679Z,69.18
2022-09-21T04:49:08.795Z,69.07
2022-09-21T04:51:36.915Z,69.14
2022-09-21T04:54:05.036Z,69.16
2022-09-21T04:56:32.845Z,69.02
2022-09-21T04:59:01.754Z,69.29
2022-09-21T05:01:29.364Z,69.31
2022-09-21T05:04:01.622Z,69.47
2022-09-21T05:06:29.756Z,69.54
2022-09-21T05:09:15.529Z,69.78
2022-09-21T05:11:46.563Z,69.56
2022-09-21T05:14:15.622Z,69.43
2022-09-21T05:16:43.220Z,69.64
2022-09-21T05:19:10.838Z,70.04
2022-09-21T05:21:38.566Z,70.16
2022-09-21T05:24:06.500Z,69.99
2022-09-21T05:26:34.083Z,69.94
2022-09-21T05:29:02.383Z,70.06
2022-09-21T05:31:40.798Z,70.26
2022-09-21T05:34:25.867Z,70.65
2022-09-21T05:37:01.791Z,70.54
2022-09-21T05:39:30.018Z,70.76
2022-09-21T05:41:58.219Z,70.47
2022-09-21T05:44:26.436Z,70.09
2022-09-21T05:47:03.074Z,69.64
2022-09-21T05:49:43.927Z,69.76
2022-09-21T05:52:20.949Z,69.49
2022-09-21T05:55:07.913Z,69.12
2022-09-21T05:57:47.535Z,68.73
2022-09-21T06:00:19.830Z,67.83
2022-09-21T06:03:05.941Z,65.44
2022-09-21T06:05:33.623Z,65.16
2022-09-21T06:08:01.231Z,66.01
2022-09-21T06:10:34.796Z,66.85
2022-09-21T06:13:02.585Z,67.43
2022-09-21T06:15:30.319Z,67.82
2022-09-21T06:18:00.169Z,67.77
2022-09-21T06:20:27.834Z,67.85
2022-09-21T06:30:17.571Z,67.90
2022-09-21T06:32:43.827Z,67.78
2022-09-21T06:35:10.095Z,66.65
2022-09-21T06:37:39.429Z,66.28
2022-09-21T06:40:07.177Z,66.61
2022-09-21T06:42:33.448Z,66.96
2022-09-21T06:44:59.668Z,67.82
2022-09-21T06:50:16.397Z,67.55
2022-09-21T06:52:42.687Z,66.71
2022-09-21T06:55:12.137Z,66.89
2022-09-21T06:57:39.313Z,67.17
2022-09-21T07:00:07.597Z,67.16
2022-09-21T07:02:34.126Z,67.65
2022-09-21T07:05:00.847Z,67.95
2022-09-21T07:07:30.319Z,67.97
2022-09-21T07:15:00.322Z,67.62
2022-09-21T07:17:31.145Z,67.65
2022-09-21T07:19:57.339Z,67.55
2022-09-21T07:22:23.816Z,67.32
2022-09-21T07:24:50.071Z,67.10
2022-09-21T07:27:16.299Z,67.38
2022-09-21T07:29:42.548Z,67.36
2022-09-21T07:32:12.299Z,67.11
2022-09-21T07:39:42.426Z,66.79
2022-09-21T07:42:08.795Z,66.69
2022-09-21T13:45:57.637Z,47.36
2022-09-21T13:48:28.609Z,47.57
2022-09-21T13:51:06.915Z,45.90
2022-09-21T13:53:39.871Z,48.35
2022-09-21T13:58:52.446Z,48.63
2022-09-21T14:01:45.259Z,45.75
2022-09-21T14:04:22.146Z,47.38
2022-09-21T14:06:50.136Z,47.12
2022-09-21T14:09:24.094Z,47.41
2022-09-21T14:11:56.418Z,47.42
2022-09-21T14:22:37.423Z,44.60
2022-09-21T14:25:25.233Z,44.78
2022-09-21T14:27:53.606Z,44.50
2022-09-21T14:30:22.026Z,43.93
2022-09-21T14:32:55.124Z,44.07
2022-09-21T14:35:23.660Z,40.15
2022-09-21T14:37:55.694Z,42.03
2022-09-21T14:45:31.993Z,42.48
2022-09-21T14:48:08.541Z,40.04
2022-09-21T14:50:39.508Z,40.43
2022-09-21T14:53:27.268Z,41.17
2022-09-21T14:56:09.395Z,39.25
2022-09-21T14:58:51.238Z,39.91
2022-09-21T15:01:36.905Z,41.59
2022-09-21T15:09:43.782Z,43.08
2022-09-21T15:12:15.543Z,42.44
2022-09-21T15:14:45.873Z,43.23
2022-09-21T15:17:23.654Z,43.47
2022-09-21T15:19:50.187Z,43.70
2022-09-21T15:22:18.139Z,43.97
2022-09-21T15:24:50.811Z,43.76
2022-09-21T15:29:56.285Z,40.55
2022-09-21T15:32:31.249Z,42.12
2022-09-21T15:35:01.461Z,42.92
2022-09-21T15:37:28.516Z,44.03
2022-09-21T15:40:02.919Z,44.35
2022-09-21T15:42:30.173Z,44.55
2022-09-21T15:45:14.138Z,43.95
2022-09-21T15:54:08.085Z,44.08
2022-09-21T15:56:40.489Z,44.86
2022-09-21T15:59:11.301Z,45.13
2022-09-21T16:01:42.000Z,42.28
2022-09-21T16:04:11.869Z,44.10
2022-09-21T16:07:07.663Z,45.04
2022-09-21T16:10:07.092Z,45.54
2022-09-21T16:23:57.321Z,47.12
2022-09-21T16:26:28.206Z,47.72
2022-09-21T16:29:13.987Z,48.19
2022-09-21T16:31:40.337Z,48.01
2022-09-21T16:34:36.647Z,48.18
2022-09-21T16:37:23.818Z,48.32
2022-09-21T16:39:50.650Z,48.64
2022-09-21T16:47:24.439Z,49.28
2022-09-21T16:49:54.421Z,48.52
2022-09-21T16:52:20.979Z,49.45
2022-09-21T16:54:48.397Z,49.50
2022-09-21T16:57:15.151Z,49.68
2022-09-21T16:59:41.425Z,50.00
2022-09-21T17:02:11.634Z,50.07
2022-09-21T17:10:54.138Z,50.61
2022-09-21T17:13:20.361Z,50.01
2022-09-21T17:15:47.710Z,50.54
2022-09-21T17:18:14.198Z,51.19
2022-09-21T17:20:42.959Z,50.98
2022-09-21T17:23:09.620Z,50.90
2022-09-21T17:25:36.676Z,51.03
2022-09-21T17:30:48.876Z,50.33
2022-09-21T17:33:20.634Z,51.30
2022-09-21T17:35:48.015Z,50.97
2022-09-21T17:38:14.749Z,51.28
2022-09-21T17:40:42.075Z,51.13
2022-09-21T17:43:27.041Z,51.36
2022-09-21T17:46:00.501Z,51.39
2022-09-21T17:48:33.234Z,52.03
2022-09-21T17:56:17.927Z,51.74
2022-09-21T17:58:49.874Z,51.66
2022-09-21T18:01:30.629Z,51.57
2022-09-21T18:03:57.499Z,51.38
2022-09-21T18:06:25.219Z,51.61
2022-09-21T18:08:54.098Z,52.01
2022-09-21T18:11:41.587Z,51.70
2022-09-21T18:14:20.285Z,52.07
2022-09-21T18:16:59.092Z,52.11
2022-09-21T18:19:38.195Z,52.17
2022-09-21T18:22:16.238Z,52.09
2022-09-21T18:24:44.455Z,52.54
2022-09-21T18:27:13.990Z,52.58
2022-09-21T18:29:42.356Z,52.67
2022-09-21T18:32:26.789Z,52.74
2022-09-21T18:35:25.959Z,52.92
2022-09-21T18:38:16.104Z,53.08
2022-09-21T18:40:55.990Z,53.16
2022-09-21T18:43:34.292Z,53.55
2022-09-21T18:46:05.031Z,53.34
2022-09-21T18:48:50.601Z,53.56
2022-09-21T18:51:24.520Z,53.69
2022-09-21T18:53:55.771Z,53.88
2022-09-21T18:56:24.365Z,53.99
2022-09-21T18:58:54.167Z,54.56
2022-09-21T19:01:23.573Z,53.98
2022-09-21T19:03:51.888Z,53.99
2022-09-21T19:06:30.865Z,53.86
2022-09-21T19:09:08.908Z,54.54
2022-09-21T19:11:42.925Z,54.58
2022-09-21T19:14:20.692Z,54.40
2022-09-21T19:17:04.949Z,55.05
2022-09-21T19:19:40.889Z,55.47
2022-09-21T19:22:15.605Z,55.25
2022-09-21T19:24:56.919Z,55.22
2022-09-21T19:27:33.486Z,54.91
2022-09-21T19:30:08.444Z,54.67
2022-09-21T19:32:41.148Z,54.95
2022-09-21T19:35:20.857Z,54.87
2022-09-21T19:37:49.309Z,55.07
2022-09-21T19:40:18.432Z,55.47
2022-09-21T19:43:01.635Z,55.71
2022-09-21T19:45:39.608Z,56.08
2022-09-21T19:48:12.346Z,56.19
2022-09-21T19:50:47.957Z,56.56
2022-09-21T19:53:33.724Z,56.78
2022-09-21T19:56:20.658Z,56.97
2022-09-21T19:59:05.893Z,57.14
2022-09-21T20:01:42.503Z,57.23
2022-09-21T20:04:15.010Z,57.14
2022-09-21T20:06:47.217Z,57.33
2022-09-21T20:09:22.565Z,57.30
2022-09-21T20:11:56.334Z,57.52
2022-09-21T20:14:32.997Z,57.58
2022-09-21T20:17:08.569Z,57.44
2022-09-21T20:19:46.365Z,58.01
2022-09-21T20:22:16.125Z,57.86
2022-09-21T20:24:52.799Z,58.08
2022-09-21T20:27:29.854Z,58.26
2022-09-21T20:29:57.718Z,58.53
2022-09-21T20:32:26.700Z,58.45
2022-09-21T20:34:54.600Z,58.75
2022-09-21T20:37:23.580Z,58.62
2022-09-21T20:39:51.141Z,58.06
2022-09-21T20:42:23.425Z,58.76
2022-09-21T20:44:51.196Z,58.95
2022-09-21T20:47:19.370Z,58.91
2022-09-21T20:49:48.667Z,58.82
2022-09-21T20:52:17.320Z,58.90
2022-09-21T20:54:49.020Z,59.13
2022-09-21T20:57:17.559Z,58.81
2022-09-21T20:59:45.590Z,59.34
2022-09-21T21:02:15.118Z,58.81
2022-09-21T21:04:42.711Z,59.39
2022-09-21T21:07:11.987Z,59.46
2022-09-21T21:09:39.563Z,59.54
2022-09-21T21:12:07.547Z,59.39
2022-09-21T21:14:35.147Z,58.92
2022-09-21T21:17:03.189Z,59.22
2022-09-21T21:19:31.187Z,59.15
2022-09-21T21:21:58.790Z,59.45
2022-09-21T21:24:43.972Z,59.38
2022-09-21T21:27:16.478Z,59.93
2022-09-21T21:29:46.069Z,59.31
2022-09-21T21:32:14.761Z,59.62
2022-09-21T21:34:45.676Z,59.79
2022-09-21T21:37:16.452Z,59.98
2022-09-21T21:39:45.897Z,59.82
2022-09-21T21:42:14.184Z,59.72
2022-09-21T21:44:41.952Z,60.08
2022-09-21T21:47:37.703Z,60.12
2022-09-21T21:49:58.302Z,60.48
2022-09-21T21:52:26.002Z,60.27
2022-09-21T21:54:54.927Z,60.52
2022-09-21T21:57:22.906Z,60.39
2022-09-21T21:59:50.464Z,60.47
2022-09-21T22:02:18.112Z,60.73
2022-09-21T22:04:46.047Z,61.12
2022-09-21T22:07:13.693Z,61.13
2022-09-21T22:09:41.231Z,61.41
2022-09-21T22:12:11.296Z,61.54
2022-09-21T22:14:38.839Z,61.61
2022-09-21T22:17:06.431Z,61.53
2022-09-21T22:19:34.190Z,61.73
2022-09-21T22:22:01.734Z,61.69
2022-09-21T22:24:29.732Z,61.91
2022-09-21T22:26:57.714Z,61.68
2022-09-21T22:29:27.011Z,62.13
2022-09-21T22:31:55.497Z,61.57
2022-09-21T22:34:23.150Z,61.62
2022-09-21T22:36:51.255Z,61.96
2022-09-21T22:39:19.163Z,61.77
2022-09-21T22:41:46.708Z,61.42
2022-09-21T22:44:14.334Z,61.74
2022-09-21T22:46:43.478Z,61.60
2022-09-21T22:49:11.029Z,61.71
2022-09-21T22:51:38.885Z,62.08
2022-09-21T22:54:06.977Z,62.29
2022-09-21T22:56:35.316Z,62.27
2022-09-21T22:59:05.337Z,62.50
2022-09-21T23:01:35.074Z,62.72
2022-09-21T23:04:06.463Z,62.63
2022-09-21T23:06:36.278Z,62.77
2022-09-21T23:09:26.361Z,62.78
2022-09-21T23:11:54.090Z,62.99
2022-09-21T23:14:22.967Z,62.86
2022-09-21T23:16:50.782Z,62.97
2022-09-21T23:19:19.848Z,63.11
2022-09-21T23:21:50.310Z,63.83
2022-09-21T23:24:18.497Z,63.43
2022-09-21T23:26:47.493Z,63.31
2022-09-21T23:29:16.795Z,63.37
2022-09-21T23:31:45.771Z,63.48
2022-09-21T23:34:15.135Z,63.39
2022-09-21T23:36:45.032Z,63.29
2022-09-21T23:39:14.110Z,63.63
2022-09-21T23:41:41.732Z,63.80
2022-09-21T23:44:09.704Z,63.80
2022-09-21T23:46:38.914Z,63.88
2022-09-21T23:49:07.083Z,63.41
2022-09-21T23:51:35.141Z,63.65
2022-09-21T23:54:04.601Z,63.66
2022-09-21T23:56:32.859Z,63.76
2022-09-21T23:59:01.379Z,63.77
